Time;durP1;ratioP1;P1;durP2;ratioP2;P2;SDS_P1;SDS_P2;PMS_P1;PMS_P2;Temp;Humidity;BMP_temperature;BMP_pressure;BME280_temperature;BME280_humidity;BME280_pressure;Samples;Min_cycle;Max_cycle;Signal;HPM_P1;HPM_P2
2022/03/04 00:02:22;;;;;;;;;;;;;;;1.48;100.00;101895.50;5036452;28;19922;-78
2022/03/04 00:04:47;;;;;;;;;;;;;;;1.48;100.00;101896.41;5054833;28;19921;-78
2022/03/04 00:07:12;;;;;;;;;;;;;;;1.50;100.00;101897.44;5041662;28;19922;-78
2022/03/04 00:09:37;;;;;;;;;;;;;;;1.46;100.00;101897.03;5018190;28;19925;-78
2022/03/04 00:12:07;;;;;;;;;;;;;;;1.38;100.00;101896.34;5042977;28;19928;-78
2022/03/04 00:14:33;;;;;;;;;;;;;;;1.37;100.00;101895.44;5041541;28;19921;-78
2022/03/04 00:16:58;;;;;;;;;;;;;;;1.37;100.00;101903.25;5030275;28;20015;-79
2022/03/04 00:19:23;;;;;;;;;;;;;;;1.34;100.00;101897.78;5030790;28;20408;-78
2022/03/04 00:21:53;;;;;;;;;;;;;;;1.39;100.00;101905.97;5035181;28;19921;-78
2022/03/04 00:24:25;;;;;;;;;;;;;;;1.35;100.00;101906.47;5037657;28;19920;-78
2022/03/04 00:26:50;;;;;;;;;;;;;;;1.40;100.00;101905.22;5028238;28;19921;-78
2022/03/04 00:29:18;;;;;;;;;;;;;;;1.29;100.00;101900.72;5030612;28;20417;-77
2022/03/04 00:31:46;;;;;;;;;;;;;;;1.23;100.00;101909.78;5020949;28;20008;-78
2022/03/04 00:34:11;;;;;;;;;;;;;;;1.23;100.00;101904.59;5054785;28;19920;-78
2022/03/04 00:36:38;;;;;;;;;;;;;;;1.23;100.00;101901.09;5018016;28;19951;-79
2022/03/04 00:39:04;;;;;;;;;;;;;;;1.13;100.00;101901.03;5050849;28;19925;-79
2022/03/04 00:41:30;;;;;;;;;;;;;;;1.06;100.00;101903.06;5018228;28;19951;-78
2022/03/04 00:43:55;;;;;;;;;;;;;;;1.02;100.00;101900.94;5017471;28;20305;-77
2022/03/04 00:46:20;;;;;;;;;;;;;;;1.04;100.00;101909.81;5017297;28;19921;-78
2022/03/04 00:48:46;;;;;;;;;;;;;;;1.03;100.00;101915.75;5017509;28;20265;-79
2022/03/04 00:51:12;;;;;;;;;;;;;;;1.00;100.00;101910.28;5017010;28;19935;-78
2022/03/04 00:53:41;;;;;;;;;;;;;;;0.99;100.00;101902.34;5017536;28;19921;-78
2022/03/04 00:56:06;;;;;;;;;;;;;;;0.93;100.00;101904.41;5049219;28;19946;-78
2022/03/04 00:58:32;;;;;;;;;;;;;;;0.87;100.00;101908.25;5033738;28;19920;-78
2022/03/04 01:00:57;;;;;;;;;;;;;;;0.84;100.00;101910.56;5022430;28;19921;-77
2022/03/04 01:03:29;;;;;;;;;;;;;;;0.86;100.00;101913.31;5019989;28;19921;-77
2022/03/04 01:05:54;;;;;;;;;;;;;;;0.80;100.00;101915.34;5029645;28;20341;-78
2022/03/04 01:08:19;;;;;;;;;;;;;;;0.76;100.00;101911.53;5018663;28;19928;-78
2022/03/04 01:10:45;;;;;;;;;;;;;;;0.80;100.00;101912.75;5031401;28;19924;-79
2022/03/04 01:13:13;;;;;;;;;;;;;;;0.64;100.00;101900.03;5054970;28;19916;-79
2022/03/04 01:15:38;;;;;;;;;;;;;;;0.59;100.00;101898.69;5039685;28;19964;-78
2022/03/04 01:18:04;;;;;;;;;;;;;;;0.48;100.00;101900.28;5032868;28;20250;-78
2022/03/04 01:20:31;;;;;;;;;;;;;;;0.48;100.00;101895.09;5030272;28;19967;-79
2022/03/04 01:22:56;;;;;;;;;;;;;;;0.46;100.00;101902.72;5026547;28;19921;-79
2022/03/04 01:25:22;;;;;;;;;;;;;;;0.44;100.00;101900.78;5030752;28;19927;-78
2022/03/04 01:27:47;;;;;;;;;;;;;;;0.45;100.00;101902.59;5037373;28;19921;-78
2022/03/04 01:30:14;;;;;;;;;;;;;;;0.35;100.00;101903.41;5036497;28;20019;-78
2022/03/04 01:32:40;;;;;;;;;;;;;;;0.32;100.00;101903.13;5027048;28;19925;-78
2022/03/04 01:35:06;;;;;;;;;;;;;;;0.23;100.00;101897.97;5029526;28;19983;-78
2022/03/04 01:37:32;;;;;;;;;;;;;;;0.27;100.00;101904.38;5036018;28;19967;-78
2022/03/04 01:39:57;;;;;;;;;;;;;;;0.26;100.00;101900.84;5021276;28;19928;-79
2022/03/04 01:42:25;;;;;;;;;;;;;;;0.23;100.00;101910.03;5053786;28;20281;-78
2022/03/04 01:44:51;;;;;;;;;;;;;;;0.27;100.00;101897.50;5005415;28;19924;-78
2022/03/04 01:47:16;;;;;;;;;;;;;;;0.31;100.00;101898.69;5025813;28;20364;-78
2022/03/04 01:49:42;;;;;;;;;;;;;;;0.34;100.00;101902.50;5017068;28;19956;-78
2022/03/04 01:52:07;;;;;;;;;;;;;;;0.41;100.00;101897.91;5017653;28;19921;-78
2022/03/04 01:54:33;;;;;;;;;;;;;;;0.42;100.00;101904.88;5016678;28;19996;-78
2022/03/04 01:56:58;;;;;;;;;;;;;;;0.40;100.00;101898.66;5017408;28;19917;-78
2022/03/04 01:59:24;;;;;;;;;;;;;;;0.37;100.00;101893.19;5017804;28;19921;-77
2022/03/04 02:01:51;;;;;;;;;;;;;;;0.27;100.00;101883.66;5034243;28;19921;-78
2022/03/04 02:04:19;;;;;;;;;;;;;;;0.27;100.00;101894.03;5016686;28;19929;-79
2022/03/04 02:06:44;;;;;;;;;;;;;;;0.29;100.00;101893.38;5017430;28;19996;-78
2022/03/04 02:09:09;;;;;;;;;;;;;;;0.30;100.00;101892.63;5038230;28;19963;-78
2022/03/04 02:11:34;;;;;;;;;;;;;;;0.31;100.00;101890.94;5027460;28;19963;-78
2022/03/04 02:14:00;;;;;;;;;;;;;;;0.22;100.00;101892.66;5035302;28;19928;-78
2022/03/04 02:16:26;;;;;;;;;;;;;;;0.17;100.00;101887.97;5038121;28;19921;-78
2022/03/04 02:18:51;;;;;;;;;;;;;;;0.18;100.00;101888.88;5034725;28;19921;-78
2022/03/04 02:21:18;;;;;;;;;;;;;;;0.19;100.00;101895.88;5040192;28;20346;-78
2022/03/04 02:23:47;;;;;;;;;;;;;;;0.15;100.00;101886.00;5035410;28;20087;-78
2022/03/04 02:26:12;;;;;;;;;;;;;;;0.15;100.00;101884.31;5026710;28;20503;-78
2022/03/04 02:28:37;;;;;;;;;;;;;;;0.18;100.00;101887.19;5046207;28;19929;-78
2022/03/04 02:31:03;;;;;;;;;;;;;;;0.20;100.00;101883.84;5055424;28;20008;-79
2022/03/04 02:33:28;;;;;;;;;;;;;;;0.17;100.00;101881.84;5032926;28;19967;-78
2022/03/04 02:35:53;;;;;;;;;;;;;;;0.15;100.00;101878.22;5025783;28;19928;-78
2022/03/04 02:38:19;;;;;;;;;;;;;;;0.19;100.00;101882.94;5023358;28;19928;-78
2022/03/04 02:40:45;;;;;;;;;;;;;;;0.14;100.00;101876.38;5029223;28;19982;-79
2022/03/04 02:43:13;;;;;;;;;;;;;;;0.07;100.00;101880.09;5039497;28;20288;-77
2022/03/04 02:45:38;;;;;;;;;;;;;;;0.00;100.00;101880.31;5040405;28;19925;-78
2022/03/04 02:48:04;;;;;;;;;;;;;;;0.06;100.00;101867.00;5044251;28;19925;-77
2022/03/04 02:50:29;;;;;;;;;;;;;;;0.07;100.00;101871.41;5030904;28;20443;-79
2022/03/04 02:52:56;;;;;;;;;;;;;;;0.09;100.00;101875.97;5035818;28;19924;-77
2022/03/04 02:55:21;;;;;;;;;;;;;;;0.07;100.00;101882.69;5030889;28;19921;-78
2022/03/04 02:57:46;;;;;;;;;;;;;;;0.14;100.00;101876.38;5038293;28;20361;-77
2022/03/04 03:00:12;;;;;;;;;;;;;;;0.15;100.00;101876.53;5032868;28;19936;-77
2022/03/04 03:02:38;;;;;;;;;;;;;;;0.22;100.00;101875.47;5024675;28;19921;-78
2022/03/04 03:05:04;;;;;;;;;;;;;;;0.18;100.00;101878.50;5034898;28;19921;-78
2022/03/04 03:07:29;;;;;;;;;;;;;;;0.18;100.00;101869.06;5029960;28;19967;-78
2022/03/04 03:09:55;;;;;;;;;;;;;;;0.14;100.00;101866.97;5032274;28;19971;-78
2022/03/04 03:12:21;;;;;;;;;;;;;;;0.13;100.00;101866.81;5034842;28;19923;-78
2022/03/04 03:14:47;;;;;;;;;;;;;;;0.09;100.00;101862.09;5038926;28;19967;-78
2022/03/04 03:17:12;;;;;;;;;;;;;;;0.02;100.00;101868.41;5038370;28;19972;-78
2022/03/04 03:19:37;;;;;;;;;;;;;;;0.01;100.00;101868.25;5029292;28;19925;-78
2022/03/04 03:22:03;;;;;;;;;;;;;;;-0.01;100.00;101869.00;5039363;28;19921;-78
2022/03/04 03:24:31;;;;;;;;;;;;;;;-0.04;100.00;101867.81;5037831;28;19921;-78
2022/03/04 03:26:56;;;;;;;;;;;;;;;-0.10;100.00;101865.53;5024415;28;20323;-78
2022/03/04 03:29:22;;;;;;;;;;;;;;;-0.09;100.00;101869.97;5018925;28;19917;-78
2022/03/04 03:31:47;;;;;;;;;;;;;;;-0.10;100.00;101870.72;5036233;28;19921;-79
2022/03/04 03:34:12;;;;;;;;;;;;;;;-0.11;100.00;101862.81;5019107;28;19928;-78
2022/03/04 03:36:44;;;;;;;;;;;;;;;-0.11;100.00;101868.91;5019913;28;19927;-78
2022/03/04 03:39:18;;;;;;;;;;;;;;;-0.13;100.00;101873.03;5024210;28;19998;-79
2022/03/04 03:41:43;;;;;;;;;;;;;;;-0.15;100.00;101874.56;5036955;28;19921;-78
2022/03/04 03:44:09;;;;;;;;;;;;;;;-0.17;100.00;101870.00;5024957;28;19921;-78
2022/03/04 03:46:39;;;;;;;;;;;;;;;-0.17;100.00;101877.75;5032385;28;19931;-79
2022/03/04 03:49:05;;;;;;;;;;;;;;;-0.13;100.00;101880.78;5028356;28;20349;-79
2022/03/04 03:51:30;;;;;;;;;;;;;;;-0.12;100.00;101877.44;5038442;28;19920;-77
2022/03/04 03:53:57;;;;;;;;;;;;;;;-0.18;100.00;101887.22;5038273;28;19921;-78
2022/03/04 03:56:23;;;;;;;;;;;;;;;-0.23;100.00;101878.09;5019352;28;19921;-78
2022/03/04 03:58:48;;;;;;;;;;;;;;;-0.24;100.00;101879.75;5030425;28;20023;-80
2022/03/04 04:01:13;;;;;;;;;;;;;;;-0.21;100.00;101873.97;5037305;28;19950;-77
2022/03/04 04:03:39;;;;;;;;;;;;;;;-0.23;100.00;101884.19;5019508;28;19924;-77
2022/03/04 04:06:04;;;;;;;;;;;;;;;-0.29;100.00;101872.34;5007386;28;19933;-77
2022/03/04 04:08:29;;;;;;;;;;;;;;;-0.32;100.00;101879.81;5049217;28;19928;-78
2022/03/04 04:10:59;;;;;;;;;;;;;;;-0.35;100.00;101883.00;5037977;28;19925;-78
2022/03/04 04:13:24;;;;;;;;;;;;;;;-0.29;100.00;101893.06;5048008;28;19925;-78
2022/03/04 04:15:50;;;;;;;;;;;;;;;-0.34;100.00;101895.19;5034778;28;20055;-78
2022/03/04 04:18:15;;;;;;;;;;;;;;;-0.32;100.00;101903.09;5036042;28;19921;-78
2022/03/04 04:20:50;;;;;;;;;;;;;;;-0.31;100.00;101891.97;5034687;28;20429;-79
2022/03/04 04:23:15;;;;;;;;;;;;;;;-0.28;100.00;101894.84;5018617;28;19925;-77
2022/03/04 04:25:42;;;;;;;;;;;;;;;-0.25;100.00;101892.56;5014081;28;19925;-79
2022/03/04 04:28:07;;;;;;;;;;;;;;;-0.30;100.00;101891.22;5029020;28;20304;-78
2022/03/04 04:30:33;;;;;;;;;;;;;;;-0.32;100.00;101900.53;5003689;28;19921;-78
2022/03/04 04:33:00;;;;;;;;;;;;;;;-0.41;100.00;101904.03;5052989;28;19952;-79
2022/03/04 04:35:25;;;;;;;;;;;;;;;-0.47;100.00;101905.13;5036922;28;19921;-79
2022/03/04 04:37:50;;;;;;;;;;;;;;;-0.49;100.00;101899.78;5029914;28;19946;-79
2022/03/04 04:40:17;;;;;;;;;;;;;;;-0.52;100.00;101904.66;5016351;28;20357;-78
2022/03/04 04:42:42;;;;;;;;;;;;;;;-0.60;100.00;101898.75;5050019;28;19921;-78
2022/03/04 04:45:10;;;;;;;;;;;;;;;-0.62;100.00;101901.94;5037110;28;19921;-79
2022/03/04 04:47:37;;;;;;;;;;;;;;;-0.66;100.00;101899.84;5020559;28;19929;-78
2022/03/04 04:50:03;;;;;;;;;;;;;;;-0.63;100.00;101895.84;5033989;28;19966;-78
2022/03/04 04:52:28;;;;;;;;;;;;;;;-0.67;100.00;101895.41;5036655;28;19921;-78
2022/03/04 04:54:53;;;;;;;;;;;;;;;-0.73;100.00;101887.94;5029852;28;19925;-78
2022/03/04 04:57:19;;;;;;;;;;;;;;;-0.77;100.00;101888.44;5017322;28;19928;-78
2022/03/04 04:59:44;;;;;;;;;;;;;;;-0.83;100.00;101886.16;5022965;28;19956;-78
2022/03/04 05:02:12;;;;;;;;;;;;;;;-0.86;100.00;101892.69;5019809;28;19929;-79
2022/03/04 05:04:38;;;;;;;;;;;;;;;-0.89;100.00;101880.38;5024338;28;19936;-80
2022/03/04 05:07:06;;;;;;;;;;;;;;;-0.93;100.00;101886.94;5032928;28;19932;-79
2022/03/04 05:09:33;;;;;;;;;;;;;;;-0.98;100.00;101887.22;5033088;28;20021;-79
2022/03/04 05:12:24;;;;;;;;;;;;;;;-1.01;100.00;101892.09;5022988;28;19960;-78
2022/03/04 05:14:50;;;;;;;;;;;;;;;-1.10;100.00;101887.84;5047064;28;19963;-79
2022/03/04 05:17:19;;;;;;;;;;;;;;;-1.15;100.00;101891.66;5036263;28;20366;-79
2022/03/04 05:19:44;;;;;;;;;;;;;;;-1.21;100.00;101891.03;5025955;28;19947;-79
2022/03/04 05:22:11;;;;;;;;;;;;;;;-1.19;100.00;101893.78;5053437;28;20269;-79
2022/03/04 05:24:36;;;;;;;;;;;;;;;-1.16;100.00;101899.25;5054345;28;20011;-80
2022/03/04 05:27:02;;;;;;;;;;;;;;;-1.19;100.00;101894.69;5036588;28;19963;-79
2022/03/04 05:29:27;;;;;;;;;;;;;;;-1.19;100.00;101896.38;5025290;28;19921;-79
2022/03/04 05:31:54;;;;;;;;;;;;;;;-1.20;100.00;101894.53;5047535;28;19933;-79
2022/03/04 05:34:19;;;;;;;;;;;;;;;-1.22;100.00;101898.66;5049805;28;20273;-79
2022/03/04 05:36:47;;;;;;;;;;;;;;;-1.24;100.00;101894.97;5035418;28;19924;-79
2022/03/04 05:39:12;;;;;;;;;;;;;;;-1.30;100.00;101884.94;5025741;28;19921;-79
2022/03/04 05:41:37;;;;;;;;;;;;;;;-1.32;100.00;101889.03;5033003;28;19955;-79
2022/03/04 05:44:03;;;;;;;;;;;;;;;-1.38;100.00;101891.00;5038636;28;19921;-79
2022/03/04 05:46:29;;;;;;;;;;;;;;;-1.41;100.00;101885.53;5050046;28;19921;-79
2022/03/04 05:48:54;;;;;;;;;;;;;;;-1.38;100.00;101891.00;5039082;28;19971;-79
2022/03/04 05:51:20;;;;;;;;;;;;;;;-1.45;100.00;101892.97;5029757;28;19967;-79
2022/03/04 05:53:45;;;;;;;;;;;;;;;-1.49;100.00;101903.78;5023578;28;19921;-78
2022/03/04 05:56:10;;;;;;;;;;;;;;;-1.44;100.00;101909.41;5033192;28;19921;-79
2022/03/04 05:58:37;;;;;;;;;;;;;;;-1.40;100.00;101903.78;5042902;28;19921;-79
2022/03/04 06:01:02;;;;;;;;;;;;;;;-1.46;100.00;101906.66;5042590;28;19921;-78
2022/03/04 06:03:29;;;;;;;;;;;;;;;-1.39;100.00;101905.59;5060548;28;19925;-78
2022/03/04 06:05:54;;;;;;;;;;;;;;;-1.36;100.00;101907.59;5050010;28;20679;-77
2022/03/04 06:08:19;;;;;;;;;;;;;;;-1.29;100.00;101910.00;5042560;28;19921;-79
2022/03/04 06:10:45;;;;;;;;;;;;;;;-1.24;100.00;101911.41;5037753;28;19965;-80
2022/03/04 06:13:20;;;;;;;;;;;;;;;-1.15;100.00;101912.34;5040260;28;19917;-78
2022/03/04 06:15:46;;;;;;;;;;;;;;;-1.18;100.00;101916.25;5061149;28;19974;-80
2022/03/04 06:18:11;;;;;;;;;;;;;;;-1.27;100.00;101921.44;5026977;28;19960;-78
2022/03/04 06:20:36;;;;;;;;;;;;;;;-1.30;100.00;101923.72;5043267;28;19928;-78
2022/03/04 06:23:04;;;;;;;;;;;;;;;-1.27;100.00;101918.84;5042904;28;19963;-78
2022/03/04 06:25:29;;;;;;;;;;;;;;;-1.32;100.00;101932.97;5042304;28;19917;-78
2022/03/04 06:27:55;;;;;;;;;;;;;;;-1.27;100.00;101929.19;5038110;28;19931;-78
2022/03/04 06:30:22;;;;;;;;;;;;;;;-1.31;100.00;101927.06;5030438;28;20526;-79
2022/03/04 06:32:48;;;;;;;;;;;;;;;-1.28;100.00;101930.84;5042085;28;19921;-80
2022/03/04 06:35:13;;;;;;;;;;;;;;;-1.25;100.00;101930.25;5034823;28;19925;-80
2022/03/04 06:37:38;;;;;;;;;;;;;;;-1.27;100.00;101930.09;5041915;28;19947;-79
2022/03/04 06:40:06;;;;;;;;;;;;;;;-1.21;100.00;101932.41;5027406;28;19921;-80
2022/03/04 06:42:35;;;;;;;;;;;;;;;-1.20;100.00;101928.13;5037735;28;20365;-78
2022/03/04 06:45:01;;;;;;;;;;;;;;;-1.18;100.00;101939.53;5030764;28;20028;-79
2022/03/04 06:47:26;;;;;;;;;;;;;;;-1.14;100.00;101942.56;5042631;28;19925;-78
2022/03/04 06:49:51;;;;;;;;;;;;;;;-1.04;100.00;101946.06;5042450;28;19916;-78
2022/03/04 06:52:19;;;;;;;;;;;;;;;-1.03;100.00;101953.09;5054472;28;19948;-78
2022/03/04 06:54:44;;;;;;;;;;;;;;;-0.95;100.00;101947.94;5036261;28;19917;-77
2022/03/04 06:57:10;;;;;;;;;;;;;;;-0.91;100.00;101954.31;5027301;28;20027;-78
2022/03/04 06:59:35;;;;;;;;;;;;;;;-0.61;100.00;101960.69;5019561;28;19967;-78
2022/03/04 07:02:01;;;;;;;;;;;;;;;-0.61;100.00;101958.09;5019488;28;19922;-77
2022/03/04 07:04:26;;;;;;;;;;;;;;;-0.65;100.00;101962.06;5018186;28;19929;-77
2022/03/04 07:06:52;;;;;;;;;;;;;;;-0.57;100.00;101973.19;5027544;28;20308;-77
2022/03/04 07:09:18;;;;;;;;;;;;;;;-0.49;100.00;101971.34;5057032;28;20333;-79
2022/03/04 07:11:43;;;;;;;;;;;;;;;-0.41;100.00;101975.59;5037074;28;19920;-78
2022/03/04 07:14:09;;;;;;;;;;;;;;;-0.30;100.00;101979.22;5027633;28;19921;-79
2022/03/04 07:16:35;;;;;;;;;;;;;;;-0.23;100.00;101989.41;5022582;28;19920;-79
2022/03/04 07:19:02;;;;;;;;;;;;;;;-0.20;100.00;101988.03;5030259;28;19921;-78
2022/03/04 07:21:36;;;;;;;;;;;;;;;-0.16;100.00;101994.41;5033045;28;20012;-77
2022/03/04 07:24:01;;;;;;;;;;;;;;;-0.08;100.00;101989.97;5019119;28;19921;-77
2022/03/04 07:26:26;;;;;;;;;;;;;;;0.03;100.00;101991.91;5038596;28;19925;-78
2022/03/04 07:28:51;;;;;;;;;;;;;;;0.42;100.00;101978.38;5052083;28;19925;-78
2022/03/04 07:31:17;;;;;;;;;;;;;;;0.59;100.00;101986.81;5022143;28;19982;-78
2022/03/04 07:33:42;;;;;;;;;;;;;;;0.78;100.00;101986.84;5018996;28;19925;-78
2022/03/04 07:36:07;;;;;;;;;;;;;;;0.61;100.00;101986.22;5020051;28;19921;-78
2022/03/04 07:38:32;;;;;;;;;;;;;;;0.71;100.00;101993.16;5020685;28;19971;-78
2022/03/04 07:40:58;;;;;;;;;;;;;;;0.67;100.00;101991.06;5034503;28;19928;-79
2022/03/04 07:43:26;;;;;;;;;;;;;;;0.81;100.00;101989.75;5037809;28;19925;-79
2022/03/04 07:45:51;;;;;;;;;;;;;;;0.87;100.00;101991.25;5025011;28;20027;-80
2022/03/04 07:48:16;;;;;;;;;;;;;;;1.11;100.00;101991.69;5027678;28;20381;-79
2022/03/04 07:50:47;;;;;;;;;;;;;;;1.45;100.00;102001.66;5031451;28;19918;-79
2022/03/04 07:53:19;;;;;;;;;;;;;;;1.30;100.00;101993.38;5036121;28;19967;-77
2022/03/04 07:55:59;;;;;;;;;;;;;;;1.56;100.00;101999.25;5032051;28;19921;-78
2022/03/04 07:58:24;;;;;;;;;;;;;;;1.64;100.00;101996.44;5036095;28;19929;-80
2022/03/04 08:00:50;;;;;;;;;;;;;;;1.60;100.00;101997.81;5036184;28;20012;-78
2022/03/04 08:03:17;;;;;;;;;;;;;;;1.82;100.00;102003.28;5036041;28;19952;-79
2022/03/04 08:05:43;;;;;;;;;;;;;;;1.68;100.00;102009.84;5051531;28;20007;-79
2022/03/04 08:08:08;;;;;;;;;;;;;;;2.01;100.00;102018.81;5051381;28;19952;-78
2022/03/04 08:10:36;;;;;;;;;;;;;;;2.44;100.00;102019.09;5035312;28;20320;-79
2022/03/04 08:13:04;;;;;;;;;;;;;;;2.66;100.00;102021.88;5051467;28;20381;-78
2022/03/04 08:15:30;;;;;;;;;;;;;;;2.66;100.00;102016.69;5050835;28;20379;-78
2022/03/04 08:17:55;;;;;;;;;;;;;;;2.92;100.00;102026.72;5051249;28;19967;-79
2022/03/04 08:20:21;;;;;;;;;;;;;;;2.92;100.00;102029.34;5018207;28;20036;-78
2022/03/04 08:22:50;;;;;;;;;;;;;;;3.03;100.00;102025.94;5023266;28;20368;-79
2022/03/04 08:25:16;;;;;;;;;;;;;;;3.45;100.00;102032.03;5034289;28;20015;-79
2022/03/04 08:27:41;;;;;;;;;;;;;;;3.31;100.00;102040.38;5021435;28;19921;-79
2022/03/04 08:30:08;;;;;;;;;;;;;;;3.26;100.00;102034.78;5018098;28;19921;-79
2022/03/04 08:32:37;;;;;;;;;;;;;;;3.61;100.00;102030.72;5036003;28;19963;-79
2022/03/04 08:35:03;;;;;;;;;;;;;;;3.73;100.00;102039.56;5018434;28;20361;-79
2022/03/04 08:37:28;;;;;;;;;;;;;;;3.79;100.00;102042.63;5022567;28;20014;-78
2022/03/04 08:39:54;;;;;;;;;;;;;;;3.89;100.00;102049.53;5037494;28;19921;-79
2022/03/04 08:42:19;;;;;;;;;;;;;;;3.78;100.00;102041.72;5037447;28;19920;-80
2022/03/04 08:44:44;;;;;;;;;;;;;;;3.79;100.00;102040.03;5038007;28;19940;-79
2022/03/04 08:47:09;;;;;;;;;;;;;;;3.70;100.00;102039.31;5020498;28;19921;-80
2022/03/04 08:49:35;;;;;;;;;;;;;;;3.55;100.00;102034.63;5023041;28;19921;-78
2022/03/04 08:52:02;;;;;;;;;;;;;;;3.68;100.00;102038.25;5028839;28;19980;-78
2022/03/04 08:54:27;;;;;;;;;;;;;;;3.74;100.00;102042.28;5034482;28;19925;-78
2022/03/04 08:56:53;;;;;;;;;;;;;;;3.62;100.00;102035.13;5017645;28;19924;-77
2022/03/04 08:59:19;;;;;;;;;;;;;;;3.58;100.00;102036.56;5034854;28;19928;-78
2022/03/04 09:01:45;;;;;;;;;;;;;;;3.54;100.00;102038.03;5016547;28;19940;-79
2022/03/04 09:04:14;;;;;;;;;;;;;;;3.62;100.00;102037.72;5017637;28;19925;-77
2022/03/04 09:06:39;;;;;;;;;;;;;;;3.65;100.00;102035.38;5039273;28;19925;-78
2022/03/04 09:09:04;;;;;;;;;;;;;;;3.61;100.00;102030.72;5020575;28;20419;-80
2022/03/04 09:11:30;;;;;;;;;;;;;;;3.70;100.00;102034.09;5036439;28;19924;-78
2022/03/04 09:14:00;;;;;;;;;;;;;;;3.49;100.00;102034.09;5037360;28;19925;-78
2022/03/04 09:16:25;;;;;;;;;;;;;;;3.56;100.00;102036.44;5033644;28;19932;-79
2022/03/04 09:18:50;;;;;;;;;;;;;;;3.66;100.00;102032.91;5036972;28;20242;-78
2022/03/04 09:21:16;;;;;;;;;;;;;;;3.75;100.00;102035.38;5016672;28;19922;-79
2022/03/04 09:23:41;;;;;;;;;;;;;;;3.76;100.00;102030.28;5033101;28;19920;-79
2022/03/04 09:26:06;;;;;;;;;;;;;;;3.82;100.00;102044.59;5037209;28;19921;-79
2022/03/04 09:28:32;;;;;;;;;;;;;;;3.84;100.00;102040.41;5034000;28;19929;-78
2022/03/04 09:30:57;;;;;;;;;;;;;;;4.01;100.00;102045.31;5028045;28;19960;-79
2022/03/04 09:33:27;;;;;;;;;;;;;;;3.99;100.00;102048.59;5035010;28;19925;-78
2022/03/04 09:35:52;;;;;;;;;;;;;;;4.12;100.00;102044.50;5034440;28;19940;-78
2022/03/04 09:38:18;;;;;;;;;;;;;;;4.19;100.00;102052.81;5032818;28;19929;-80
2022/03/04 09:40:43;;;;;;;;;;;;;;;4.32;100.00;102056.53;5017089;28;20366;-80
2022/03/04 09:43:17;;;;;;;;;;;;;;;4.45;100.00;102057.53;5040666;28;19925;-80
2022/03/04 09:45:42;;;;;;;;;;;;;;;4.45;100.00;102063.63;5023588;28;19921;-79
2022/03/04 09:48:11;;;;;;;;;;;;;;;4.44;100.00;102064.44;5048891;28;19927;-80
2022/03/04 09:50:37;;;;;;;;;;;;;;;4.54;100.00;102063.47;5035042;28;19967;-79
2022/03/04 09:53:09;;;;;;;;;;;;;;;4.70;100.00;102065.59;5025695;28;20361;-79
2022/03/04 09:55:35;;;;;;;;;;;;;;;4.77;100.00;102061.75;5028607;28;19928;-80
2022/03/04 09:58:01;;;;;;;;;;;;;;;4.75;100.00;102063.34;5047196;28;19982;-80
2022/03/04 10:00:26;;;;;;;;;;;;;;;4.72;100.00;102065.72;5036686;28;20250;-79
2022/03/04 10:02:59;;;;;;;;;;;;;;;4.72;100.00;102060.50;5036442;28;19920;-80
2022/03/04 10:05:24;;;;;;;;;;;;;;;4.85;100.00;102063.28;5036373;28;20012;-80
2022/03/04 10:07:50;;;;;;;;;;;;;;;4.72;100.00;102057.88;5036896;28;19952;-79
2022/03/04 10:10:22;;;;;;;;;;;;;;;4.94;100.00;102057.84;5049305;28;20363;-79
2022/03/04 10:13:01;;;;;;;;;;;;;;;5.18;100.00;102061.47;5040478;28;19925;-80
2022/03/04 10:15:27;;;;;;;;;;;;;;;5.19;100.00;102058.09;5024214;28;20357;-80
2022/03/04 10:17:58;;;;;;;;;;;;;;;5.18;100.00;102051.03;5018465;28;19946;-80
2022/03/04 10:20:31;;;;;;;;;;;;;;;5.20;100.00;102047.75;5034101;28;20346;-80
2022/03/04 10:23:19;;;;;;;;;;;;;;;5.36;100.00;102052.44;5021346;28;20594;-79
2022/03/04 10:25:45;;;;;;;;;;;;;;;5.54;100.00;102046.78;5015699;28;19948;-79
2022/03/04 10:28:11;;;;;;;;;;;;;;;5.54;100.00;102041.56;5037431;28;19966;-77
2022/03/04 10:30:36;;;;;;;;;;;;;;;5.69;100.00;102034.88;5035010;28;20004;-79
2022/03/04 10:33:15;;;;;;;;;;;;;;;5.70;100.00;102039.31;5045078;28;20019;-78
2022/03/04 10:35:40;;;;;;;;;;;;;;;5.92;100.00;102043.53;5044439;28;19925;-80
2022/03/04 10:38:06;;;;;;;;;;;;;;;5.69;100.00;102040.09;5038656;28;19921;-81
2022/03/04 10:40:32;;;;;;;;;;;;;;;5.99;100.00;102044.91;5047304;28;20420;-80
2022/03/04 10:43:02;;;;;;;;;;;;;;;6.07;100.00;102035.91;5040097;28;20011;-80
2022/03/04 10:45:31;;;;;;;;;;;;;;;6.17;100.00;102035.78;5042141;28;19975;-81
2022/03/04 10:47:57;;;;;;;;;;;;;;;6.30;100.00;102037.59;5020143;28;19921;-80
2022/03/04 10:50:27;;;;;;;;;;;;;;;6.23;100.00;102044.09;5053004;28;20377;-81
2022/03/04 10:52:56;;;;;;;;;;;;;;;6.24;100.00;102042.38;5053638;28;19932;-80
2022/03/04 10:55:26;;;;;;;;;;;;;;;6.46;100.00;102043.13;5037935;28;20004;-79
2022/03/04 10:57:51;;;;;;;;;;;;;;;6.49;100.00;102042.44;5020083;28;19947;-80
2022/03/04 11:00:22;;;;;;;;;;;;;;;6.55;100.00;102044.59;5020422;28;19921;-80
2022/03/04 11:02:55;;;;;;;;;;;;;;;6.65;100.00;102045.34;5021383;28;20321;-80
2022/03/04 11:05:21;;;;;;;;;;;;;;;6.72;100.00;102045.78;5018498;28;19928;-81
2022/03/04 11:07:46;;;;;;;;;;;;;;;6.70;100.00;102037.81;5019998;28;19928;-78
2022/03/04 11:10:11;;;;;;;;;;;;;;;6.77;100.00;102041.75;5023652;28;19925;-80
2022/03/04 11:12:42;;;;;;;;;;;;;;;6.78;100.00;102043.59;5031520;28;19972;-79
2022/03/04 11:15:10;;;;;;;;;;;;;;;6.92;100.00;102047.19;5039076;28;19921;-78
2022/03/04 11:17:35;;;;;;;;;;;;;;;7.11;100.00;102052.88;5039572;28;19924;-79
2022/03/04 11:20:01;;;;;;;;;;;;;;;6.99;100.00;102046.78;5027150;28;20365;-80
2022/03/04 11:22:26;;;;;;;;;;;;;;;7.05;100.00;102047.22;5019107;28;19928;-80
2022/03/04 11:24:51;;;;;;;;;;;;;;;7.26;100.00;102047.81;5049544;28;20199;-79
2022/03/04 11:27:19;;;;;;;;;;;;;;;7.32;100.00;102040.34;5028477;28;19967;-81
2022/03/04 11:29:45;;;;;;;;;;;;;;;7.51;100.00;102039.88;5019314;28;20024;-80
2022/03/04 11:32:27;;;;;;;;;;;;;;;7.55;100.00;102051.47;5019214;28;19921;-81
2022/03/04 11:34:52;;;;;;;;;;;;;;;7.61;100.00;102041.41;5018804;28;20616;-82
2022/03/04 11:37:19;;;;;;;;;;;;;;;7.54;100.00;102047.06;5018637;28;20004;-80
2022/03/04 11:40:03;;;;;;;;;;;;;;;7.53;100.00;102043.50;5018435;28;19921;-80
2022/03/04 11:42:38;;;;;;;;;;;;;;;7.62;100.00;102047.56;5036813;28;19926;-80
2022/03/04 11:45:07;;;;;;;;;;;;;;;7.61;100.00;102038.78;5021589;28;19943;-81
2022/03/04 11:47:36;;;;;;;;;;;;;;;7.65;100.00;102037.28;5036559;28;19921;-81
2022/03/04 11:50:23;;;;;;;;;;;;;;;7.79;100.00;102031.25;5018250;28;19928;-80
2022/03/04 11:52:48;;;;;;;;;;;;;;;7.70;100.00;102042.00;5018082;28;20381;-79
2022/03/04 11:55:20;;;;;;;;;;;;;;;7.81;100.00;102029.63;5044754;28;19921;-79
2022/03/04 11:57:46;;;;;;;;;;;;;;;8.01;100.00;102038.81;5037911;28;19929;-80
2022/03/04 12:00:11;;;;;;;;;;;;;;;7.96;100.00;102034.09;5044848;28;19994;-79
2022/03/04 12:02:53;;;;;;;;;;;;;;;8.01;100.00;102032.66;5036083;28;19921;-79
2022/03/04 12:05:25;;;;;;;;;;;;;;;7.93;100.00;102023.38;5017880;28;19921;-79
2022/03/04 12:07:53;;;;;;;;;;;;;;;8.03;100.00;102021.47;5019929;28;19921;-80
2022/03/04 12:10:22;;;;;;;;;;;;;;;8.05;100.00;102024.19;5018345;28;21571;-79
2022/03/04 12:13:11;;;;;;;;;;;;;;;7.89;100.00;102022.25;5018448;28;20574;-78
2022/03/04 12:15:38;;;;;;;;;;;;;;;8.17;100.00;102009.25;5018856;28;19928;-79
2022/03/04 12:18:06;;;;;;;;;;;;;;;8.23;100.00;102017.50;5018863;28;19921;-79
2022/03/04 12:20:51;;;;;;;;;;;;;;;8.42;100.00;102014.34;5021070;28;19921;-79
2022/03/04 12:23:28;;;;;;;;;;;;;;;8.50;100.00;102014.84;5035500;28;19921;-78
2022/03/04 12:25:53;;;;;;;;;;;;;;;8.58;100.00;102023.22;5018027;28;19921;-79
2022/03/04 12:28:26;;;;;;;;;;;;;;;8.51;100.00;102010.50;5017442;28;20016;-80
2022/03/04 12:31:05;;;;;;;;;;;;;;;8.65;100.00;102014.00;5017857;28;19967;-80
2022/03/04 12:33:34;;;;;;;;;;;;;;;8.70;100.00;102008.22;5035172;28;20265;-80